sensor_id;sensor_type;location;lat;lon;timestamp;pressure;altitude;pressure_sealevel;temperature;humidity
73101;BME280;61288;53.446;-2.266;2022-09-17T00:02:00;102082.34;;;6.27;75.92
73101;BME280;61288;53.446;-2.266;2022-09-17T00:04:25;102084.06;;;6.30;76.24
73101;BME280;61288;53.446;-2.266;2022-09-17T00:06:52;102069.47;;;6.30;75.97
73101;BME280;61288;53.446;-2.266;2022-09-17T00:09:17;102062.59;;;6.25;75.83
73101;BME280;61288;53.446;-2.266;2022-09-17T00:11:43;102076.34;;;6.16;75.82
73101;BME280;61288;53.446;-2.266;2022-09-17T00:14:14;102083.19;;;6.09;75.94
73101;BME280;61288;53.446;-2.266;2022-09-17T00:16:43;102083.16;;;6.07;75.87
73101;BME280;61288;53.446;-2.266;2022-09-17T00:19:13;102074.59;;;6.02;76.20
73101;BME280;61288;53.446;-2.266;2022-09-17T00:21:39;102086.63;;;6.05;76.46
73101;BME280;61288;53.446;-2.266;2022-09-17T00:24:06;102078.88;;;6.10;76.54
73101;BME280;61288;53.446;-2.266;2022-09-17T00:26:32;102076.31;;;6.11;76.38
73101;BME280;61288;53.446;-2.266;2022-09-17T00:28:59;102082.31;;;6.12;76.45
73101;BME280;61288;53.446;-2.266;2022-09-17T00:31:25;102084.91;;;6.15;77.62
73101;BME280;61288;53.446;-2.266;2022-09-17T00:33:52;102080.63;;;6.17;77.50
73101;BME280;61288;53.446;-2.266;2022-09-17T00:36:18;102079.75;;;6.10;76.39
73101;BME280;61288;53.446;-2.266;2022-09-17T00:38:56;102087.47;;;6.02;76.65
73101;BME280;61288;53.446;-2.266;2022-09-17T00:41:24;102084.84;;;5.91;76.56
73101;BME280;61288;53.446;-2.266;2022-09-17T00:43:54;102089.13;;;5.85;76.91
73101;BME280;61288;53.446;-2.266;2022-09-17T00:48:58;102087.41;;;5.76;76.69
73101;BME280;61288;53.446;-2.266;2022-09-17T00:52:04;102088.25;;;5.75;76.57
73101;BME280;61288;53.446;-2.266;2022-09-17T00:54:31;102079.66;;;5.74;76.91
73101;BME280;61288;53.446;-2.266;2022-09-17T00:56:57;102082.25;;;5.74;76.78
73101;BME280;61288;53.446;-2.266;2022-09-17T00:59:23;102072.81;;;5.73;77.22
73101;BME280;61288;53.446;-2.266;2022-09-17T01:01:49;102077.09;;;5.73;77.34
73101;BME280;61288;53.446;-2.266;2022-09-17T01:04:22;102080.53;;;5.73;77.01
73101;BME280;61288;53.446;-2.266;2022-09-17T01:20:44;102089.03;;;5.46;79.10
73101;BME280;61288;53.446;-2.266;2022-09-17T01:23:31;102085.59;;;5.41;80.11
73101;BME280;61288;53.446;-2.266;2022-09-17T01:31:32;102083.84;;;5.38;78.77
73101;BME280;61288;53.446;-2.266;2022-09-17T01:34:22;102072.75;;;5.38;78.57
73101;BME280;61288;53.446;-2.266;2022-09-17T01:37:26;102077.84;;;5.30;79.25
73101;BME280;61288;53.446;-2.266;2022-09-17T01:40:16;102081.25;;;5.29;78.89
73101;BME280;61288;53.446;-2.266;2022-09-17T01:45:38;102087.22;;;5.18;79.31
73101;BME280;61288;53.446;-2.266;2022-09-17T01:48:13;102088.94;;;5.21;80.27
73101;BME280;61288;53.446;-2.266;2022-09-17T01:51:03;102097.53;;;5.25;80.22
73101;BME280;61288;53.446;-2.266;2022-09-17T01:53:55;102090.69;;;5.27;80.21
73101;BME280;61288;53.446;-2.266;2022-09-17T01:56:27;102088.09;;;5.20;80.53
73101;BME280;61288;53.446;-2.266;2022-09-17T01:59:06;102092.38;;;5.25;79.48
73101;BME280;61288;53.446;-2.266;2022-09-17T02:01:35;102074.38;;;5.15;79.31
73101;BME280;61288;53.446;-2.266;2022-09-17T02:04:45;102076.03;;;5.09;80.35
73101;BME280;61288;53.446;-2.266;2022-09-17T02:07:09;102081.16;;;5.02;78.71
73101;BME280;61288;53.446;-2.266;2022-09-17T02:09:39;102078.53;;;4.91;79.06
73101;BME280;61288;53.446;-2.266;2022-09-17T02:12:09;102087.03;;;4.86;79.87
73101;BME280;61288;53.446;-2.266;2022-09-17T02:14:42;102090.50;;;4.86;79.40
73101;BME280;61288;53.446;-2.266;2022-09-17T02:17:23;102101.63;;;4.85;79.62
73101;BME280;61288;53.446;-2.266;2022-09-17T02:19:51;102100.69;;;4.80;79.88
73101;BME280;61288;53.446;-2.266;2022-09-17T02:22:26;102099.03;;;4.82;80.30
73101;BME280;61288;53.446;-2.266;2022-09-17T02:25:17;102098.19;;;4.86;81.76
73101;BME280;61288;53.446;-2.266;2022-09-17T02:27:54;102105.03;;;4.84;81.32
73101;BME280;61288;53.446;-2.266;2022-09-17T02:30:22;102084.47;;;4.83;81.41
73101;BME280;61288;53.446;-2.266;2022-09-17T02:32:47;102087.00;;;4.78;80.61
73101;BME280;61288;53.446;-2.266;2022-09-17T02:35:14;102086.13;;;4.71;79.82
73101;BME280;61288;53.446;-2.266;2022-09-17T02:37:40;102092.94;;;4.71;79.84
73101;BME280;61288;53.446;-2.266;2022-09-17T02:40:07;102091.25;;;4.68;80.72
73101;BME280;61288;53.446;-2.266;2022-09-17T02:45:17;102096.28;;;4.57;79.86
73101;BME280;61288;53.446;-2.266;2022-09-17T02:54:04;102092.97;;;4.69;82.19
73101;BME280;61288;53.446;-2.266;2022-09-17T03:00:12;102092.03;;;4.62;79.72
73101;BME280;61288;53.446;-2.266;2022-09-17T03:02:49;102094.50;;;4.48;80.43
73101;BME280;61288;53.446;-2.266;2022-09-17T03:05:19;102097.91;;;4.46;79.88
73101;BME280;61288;53.446;-2.266;2022-09-17T03:07:45;102091.94;;;4.45;80.47
73101;BME280;61288;53.446;-2.266;2022-09-17T03:10:12;102094.44;;;4.41;80.15
73101;BME280;61288;53.446;-2.266;2022-09-17T03:12:37;102095.31;;;4.43;80.50
73101;BME280;61288;53.446;-2.266;2022-09-17T03:15:06;102090.16;;;4.40;80.63
73101;BME280;61288;53.446;-2.266;2022-09-17T03:17:33;102091.88;;;4.41;80.69
73101;BME280;61288;53.446;-2.266;2022-09-17T03:20:02;102094.44;;;4.41;80.75
73101;BME280;61288;53.446;-2.266;2022-09-17T03:22:28;102095.31;;;4.41;80.88
73101;BME280;61288;53.446;-2.266;2022-09-17T03:24:54;102106.44;;;4.40;80.98
73101;BME280;61288;53.446;-2.266;2022-09-17T03:27:19;102106.41;;;4.39;80.98
73101;BME280;61288;53.446;-2.266;2022-09-17T03:29:45;102106.34;;;4.29;80.59
73101;BME280;61288;53.446;-2.266;2022-09-17T03:32:13;102102.03;;;4.27;80.74
73101;BME280;61288;53.446;-2.266;2022-09-17T03:34:39;102102.91;;;4.27;81.19
73101;BME280;61288;53.446;-2.266;2022-09-17T03:37:04;102101.16;;;4.23;81.07
73101;BME280;61288;53.446;-2.266;2022-09-17T03:39:32;102101.03;;;4.11;80.35
73101;BME280;61288;53.446;-2.266;2022-09-17T03:41:58;102101.84;;;4.07;80.80
73101;BME280;61288;53.446;-2.266;2022-09-17T03:44:23;102109.53;;;4.02;80.87
73101;BME280;61288;53.446;-2.266;2022-09-17T03:46:49;102112.91;;;3.98;80.82
73101;BME280;61288;53.446;-2.266;2022-09-17T03:49:15;102112.94;;;4.01;81.74
73101;BME280;61288;53.446;-2.266;2022-09-17T03:51:40;102115.53;;;4.04;81.92
73101;BME280;61288;53.446;-2.266;2022-09-17T03:54:06;102114.72;;;4.08;82.86
73101;BME280;61288;53.446;-2.266;2022-09-17T03:56:32;102113.03;;;4.13;82.46
73101;BME280;61288;53.446;-2.266;2022-09-17T03:58:59;102116.53;;;4.20;83.32
73101;BME280;61288;53.446;-2.266;2022-09-17T04:01:26;102110.53;;;4.19;81.68
73101;BME280;61288;53.446;-2.266;2022-09-17T04:03:52;102115.59;;;4.12;81.54
73101;BME280;61288;53.446;-2.266;2022-09-17T04:06:17;102113.78;;;4.00;81.28
73101;BME280;61288;53.446;-2.266;2022-09-17T04:08:43;102115.41;;;3.90;80.99
73101;BME280;61288;53.446;-2.266;2022-09-17T04:11:11;102112.00;;;3.91;81.36
73101;BME280;61288;53.446;-2.266;2022-09-17T04:13:37;102112.88;;;3.93;82.00
73101;BME280;61288;53.446;-2.266;2022-09-17T04:16:08;102108.56;;;3.92;81.63
73101;BME280;61288;53.446;-2.266;2022-09-17T04:18:36;102111.13;;;3.89;81.26
73101;BME280;61288;53.446;-2.266;2022-09-17T04:21:03;102106.84;;;3.88;80.75
73101;BME280;61288;53.446;-2.266;2022-09-17T04:23:28;102101.66;;;3.82;81.07
73101;BME280;61288;53.446;-2.266;2022-09-17T04:25:56;102100.72;;;3.75;81.14
73101;BME280;61288;53.446;-2.266;2022-09-17T04:28:25;102095.50;;;3.67;81.01
73101;BME280;61288;53.446;-2.266;2022-09-17T04:33:26;102104.78;;;3.56;81.30
73101;BME280;61288;53.446;-2.266;2022-09-17T04:35:52;102109.06;;;3.58;81.39
73101;BME280;61288;53.446;-2.266;2022-09-17T04:38:18;102110.75;;;3.56;81.46
73101;BME280;61288;53.446;-2.266;2022-09-17T04:40:45;102112.47;;;3.56;82.10
73101;BME280;61288;53.446;-2.266;2022-09-17T04:43:11;102112.47;;;3.57;82.51
73101;BME280;61288;53.446;-2.266;2022-09-17T04:45:36;102107.41;;;3.62;82.14
73101;BME280;61288;53.446;-2.266;2022-09-17T04:48:02;102104.84;;;3.64;82.02
73101;BME280;61288;53.446;-2.266;2022-09-17T04:50:29;102116.81;;;3.63;81.94
73101;BME280;61288;53.446;-2.266;2022-09-17T04:52:54;102108.28;;;3.64;82.11
73101;BME280;61288;53.446;-2.266;2022-09-17T04:55:20;102111.63;;;3.57;81.84
73101;BME280;61288;53.446;-2.266;2022-09-17T04:57:47;102110.78;;;3.58;81.34
73101;BME280;61288;53.446;-2.266;2022-09-17T05:00:13;102103.06;;;3.55;82.42
73101;BME280;61288;53.446;-2.266;2022-09-17T05:02:40;102103.88;;;3.51;83.27
73101;BME280;61288;53.446;-2.266;2022-09-17T05:05:06;102098.75;;;3.51;82.72
73101;BME280;61288;53.446;-2.266;2022-09-17T05:07:31;102103.88;;;3.52;82.28
73101;BME280;61288;53.446;-2.266;2022-09-17T05:09:57;102104.75;;;3.53;81.87
73101;BME280;61288;53.446;-2.266;2022-09-17T05:12:23;102104.63;;;3.43;81.90
73101;BME280;61288;53.446;-2.266;2022-09-17T05:14:48;102106.25;;;3.37;82.02
73101;BME280;61288;53.446;-2.266;2022-09-17T05:17:14;102096.81;;;3.32;82.64
73101;BME280;61288;53.446;-2.266;2022-09-17T05:19:39;102094.25;;;3.34;83.69
73101;BME280;61288;53.446;-2.266;2022-09-17T05:22:04;102091.72;;;3.34;84.03
73101;BME280;61288;53.446;-2.266;2022-09-17T05:24:30;102092.56;;;3.35;82.95
73101;BME280;61288;53.446;-2.266;2022-09-17T05:26:55;102094.31;;;3.37;82.49
73101;BME280;61288;53.446;-2.266;2022-09-17T05:29:21;102091.75;;;3.36;82.72
73101;BME280;61288;53.446;-2.266;2022-09-17T05:31:47;102095.16;;;3.36;82.35
73101;BME280;61288;53.446;-2.266;2022-09-17T05:34:13;102097.63;;;3.30;82.22
73101;BME280;61288;53.446;-2.266;2022-09-17T05:36:38;102096.69;;;3.22;81.73
73101;BME280;61288;53.446;-2.266;2022-09-17T05:39:04;102102.63;;;3.19;82.27
73101;BME280;61288;53.446;-2.266;2022-09-17T05:41:32;102088.94;;;3.15;82.36
73101;BME280;61288;53.446;-2.266;2022-09-17T05:43:58;102106.81;;;3.14;82.72
73101;BME280;61288;53.446;-2.266;2022-09-17T05:46:26;102103.38;;;3.12;82.94
73101;BME280;61288;53.446;-2.266;2022-09-17T05:48:54;102102.47;;;3.08;82.96
73101;BME280;61288;53.446;-2.266;2022-09-17T05:51:21;102106.75;;;3.09;82.92
73101;BME280;61288;53.446;-2.266;2022-09-17T05:53:46;102108.44;;;3.07;82.63
73101;BME280;61288;53.446;-2.266;2022-09-17T05:56:11;102105.00;;;3.03;83.68
73101;BME280;61288;53.446;-2.266;2022-09-17T05:58:37;102105.88;;;3.07;83.38
73101;BME280;61288;53.446;-2.266;2022-09-17T06:01:03;102107.63;;;3.11;83.26
73101;BME280;61288;53.446;-2.266;2022-09-17T06:03:28;102117.84;;;3.08;83.88
73101;BME280;61288;53.446;-2.266;2022-09-17T06:05:58;102117.88;;;3.10;83.98
73101;BME280;61288;53.446;-2.266;2022-09-17T06:08:25;102113.63;;;3.13;83.62
73101;BME280;61288;53.446;-2.266;2022-09-17T06:10:51;102123.00;;;3.10;82.88
73101;BME280;61288;53.446;-2.266;2022-09-17T06:13:17;102118.72;;;3.10;83.78
73101;BME280;61288;53.446;-2.266;2022-09-17T06:15:49;102118.75;;;3.13;84.00
73101;BME280;61288;53.446;-2.266;2022-09-17T06:18:15;102128.16;;;3.13;84.04
73101;BME280;61288;53.446;-2.266;2022-09-17T06:20:41;102123.88;;;3.13;83.74
73101;BME280;61288;53.446;-2.266;2022-09-17T06:23:06;102117.00;;;3.08;84.55
73101;BME280;61288;53.446;-2.266;2022-09-17T06:25:32;102121.25;;;3.07;84.63
73101;BME280;61288;53.446;-2.266;2022-09-17T06:27:57;102127.25;;;3.08;83.50
73101;BME280;61288;53.446;-2.266;2022-09-17T06:30:23;102128.09;;;3.07;84.77
73101;BME280;61288;53.446;-2.266;2022-09-17T06:32:48;102138.31;;;3.07;84.22
73101;BME280;61288;53.446;-2.266;2022-09-17T06:35:14;102136.69;;;3.12;84.91
73101;BME280;61288;53.446;-2.266;2022-09-17T06:37:40;102136.75;;;3.16;84.59
73101;BME280;61288;53.446;-2.266;2022-09-17T06:40:07;102131.72;;;3.23;84.33
73101;BME280;61288;53.446;-2.266;2022-09-17T06:42:33;102141.22;;;3.33;85.22
73101;BME280;61288;53.446;-2.266;2022-09-17T06:44:58;102143.91;;;3.42;85.52
73101;BME280;61288;53.446;-2.266;2022-09-17T06:47:24;102149.13;;;3.50;85.97
73101;BME280;61288;53.446;-2.266;2022-09-17T06:49:49;102147.47;;;3.55;86.17
73101;BME280;61288;53.446;-2.266;2022-09-17T06:52:15;102147.56;;;3.63;86.93
73101;BME280;61288;53.446;-2.266;2022-09-17T06:54:41;102144.22;;;3.70;85.37
73101;BME280;61288;53.446;-2.266;2022-09-17T06:57:11;102146.97;;;3.83;85.06
73101;BME280;61288;53.446;-2.266;2022-09-17T06:59:36;102144.44;;;3.90;85.48
73101;BME280;61288;53.446;-2.266;2022-09-17T07:02:02;102143.69;;;3.99;84.93
73101;BME280;61288;53.446;-2.266;2022-09-17T07:04:28;102151.47;;;4.09;83.63
73101;BME280;61288;53.446;-2.266;2022-09-17T07:07:00;102151.56;;;4.15;83.62
73101;BME280;61288;53.446;-2.266;2022-09-17T07:09:26;102160.19;;;4.23;84.35
73101;BME280;61288;53.446;-2.266;2022-09-17T07:11:51;102155.09;;;4.29;84.01
73101;BME280;61288;53.446;-2.266;2022-09-17T07:14:21;102157.72;;;4.36;84.28
73101;BME280;61288;53.446;-2.266;2022-09-17T07:16:49;102162.06;;;4.43;82.85
73101;BME280;61288;53.446;-2.266;2022-09-17T07:19:18;102157.88;;;4.53;83.48
73101;BME280;61288;53.446;-2.266;2022-09-17T07:21:43;102164.78;;;4.63;83.43
73101;BME280;61288;53.446;-2.266;2022-09-17T07:24:09;102159.69;;;4.68;81.71
73101;BME280;61288;53.446;-2.266;2022-09-17T07:26:34;102153.72;;;4.72;81.61
73101;BME280;61288;53.446;-2.266;2022-09-17T07:29:00;102161.47;;;4.76;81.35
73101;BME280;61288;53.446;-2.266;2022-09-17T07:31:25;102166.66;;;4.81;81.87
73101;BME280;61288;53.446;-2.266;2022-09-17T07:33:51;102165.81;;;4.84;81.32
73101;BME280;61288;53.446;-2.266;2022-09-17T07:36:16;102175.25;;;4.88;81.03
73101;BME280;61288;53.446;-2.266;2022-09-17T07:38:42;102172.72;;;4.93;81.39
73101;BME280;61288;53.446;-2.266;2022-09-17T07:41:13;102168.50;;;4.99;81.20
73101;BME280;61288;53.446;-2.266;2022-09-17T07:43:39;102172.81;;;5.06;81.45
73101;BME280;61288;53.446;-2.266;2022-09-17T07:46:21;102172.84;;;5.16;81.37
73101;BME280;61288;53.446;-2.266;2022-09-17T07:48:49;102162.63;;;5.24;81.72
73101;BME280;61288;53.446;-2.266;2022-09-17T07:51:21;102154.09;;;5.31;81.55
73101;BME280;61288;53.446;-2.266;2022-09-17T07:53:58;102148.16;;;5.40;81.36
73101;BME280;61288;53.446;-2.266;2022-09-17T07:56:26;102150.75;;;5.47;81.07
73101;BME280;61288;53.446;-2.266;2022-09-17T07:58:52;102155.06;;;5.55;81.02
73101;BME280;61288;53.446;-2.266;2022-09-17T08:01:18;102155.09;;;5.64;81.59
73101;BME280;61288;53.446;-2.266;2022-09-17T08:03:50;102154.25;;;5.74;80.56
73101;BME280;61288;53.446;-2.266;2022-09-17T08:06:19;102148.28;;;5.89;80.85
73101;BME280;61288;53.446;-2.266;2022-09-17T08:08:46;102144.94;;;6.04;79.86
73101;BME280;61288;53.446;-2.266;2022-09-17T08:11:15;102150.97;;;6.17;80.07
73101;BME280;61288;53.446;-2.266;2022-09-17T08:13:41;102150.97;;;6.31;80.01
73101;BME280;61288;53.446;-2.266;2022-09-17T08:16:09;102150.97;;;6.44;80.15
73101;BME280;61288;53.446;-2.266;2022-09-17T08:18:37;102150.97;;;6.59;79.95
73101;BME280;61288;53.446;-2.266;2022-09-17T08:21:05;102145.81;;;6.75;80.27
73101;BME280;61288;53.446;-2.266;2022-09-17T08:23:34;102146.63;;;6.96;79.30
73101;BME280;61288;53.446;-2.266;2022-09-17T08:26:01;102146.59;;;7.14;77.90
73101;BME280;61288;53.446;-2.266;2022-09-17T08:28:28;102150.84;;;7.31;77.83
73101;BME280;61288;53.446;-2.266;2022-09-17T08:30:59;102143.88;;;7.50;76.75
73101;BME280;61288;53.446;-2.266;2022-09-17T08:33:32;102141.22;;;7.72;75.53
73101;BME280;61288;53.446;-2.266;2022-09-17T08:35:59;102135.91;;;7.95;75.51
73101;BME280;61288;53.446;-2.266;2022-09-17T08:38:26;102139.19;;;8.19;73.89
73101;BME280;61288;53.446;-2.266;2022-09-17T08:46:10;102147.56;;;8.47;70.05
73101;BME280;61288;53.446;-2.266;2022-09-17T08:48:41;102149.19;;;8.62;71.00
73101;BME280;61288;53.446;-2.266;2022-09-17T08:51:36;102153.41;;;8.74;70.61
73101;BME280;61288;53.446;-2.266;2022-09-17T08:56:47;102155.66;;;9.07;68.83
73101;BME280;61288;53.446;-2.266;2022-09-17T08:59:38;102151.13;;;9.26;68.79
73101;BME280;61288;53.446;-2.266;2022-09-17T09:03:06;102145.81;;;9.38;67.91
73101;BME280;61288;53.446;-2.266;2022-09-17T09:05:45;102155.88;;;9.60;67.58
73101;BME280;61288;53.446;-2.266;2022-09-17T09:08:29;102147.06;;;9.75;66.48
73101;BME280;61288;53.446;-2.266;2022-09-17T09:10:58;102143.38;;;9.92;66.38
73101;BME280;61288;53.446;-2.266;2022-09-17T09:13:35;102146.59;;;10.08;66.63
73101;BME280;61288;53.446;-2.266;2022-09-17T09:16:23;102151.53;;;10.25;65.00
73101;BME280;61288;53.446;-2.266;2022-09-17T09:18:54;102149.56;;;10.39;65.76
73101;BME280;61288;53.446;-2.266;2022-09-17T09:21:29;102144.88;;;10.63;65.32
73101;BME280;61288;53.446;-2.266;2022-09-17T09:27:28;102158.53;;;11.19;63.29
73101;BME280;61288;53.446;-2.266;2022-09-17T09:35:16;102163.75;;;12.38;58.43
73101;BME280;61288;53.446;-2.266;2022-09-17T09:37:49;102161.34;;;12.98;58.18
73101;BME280;61288;53.446;-2.266;2022-09-17T09:40:42;102155.03;;;13.69;55.43
73101;BME280;61288;53.446;-2.266;2022-09-17T09:46:23;102160.66;;;14.91;51.72
73101;BME280;61288;53.446;-2.266;2022-09-17T09:54:58;102152.66;;;14.70;48.83
73101;BME280;61288;53.446;-2.266;2022-09-17T09:57:44;102155.66;;;14.59;49.45
73101;BME280;61288;53.446;-2.266;2022-09-17T10:00:33;102148.50;;;14.65;48.70
73101;BME280;61288;53.446;-2.266;2022-09-17T10:05:34;102142.56;;;14.86;48.57
73101;BME280;61288;53.446;-2.266;2022-09-17T10:08:13;102143.00;;;14.74;48.05
73101;BME280;61288;53.446;-2.266;2022-09-17T10:11:01;102140.13;;;14.82;50.42
73101;BME280;61288;53.446;-2.266;2022-09-17T10:13:36;102140.72;;;14.88;49.91
73101;BME280;61288;53.446;-2.266;2022-09-17T10:16:25;102141.38;;;14.95;48.79
73101;BME280;61288;53.446;-2.266;2022-09-17T10:21:32;102135.13;;;14.76;48.68
73101;BME280;61288;53.446;-2.266;2022-09-17T10:24:00;102132.41;;;14.79;47.77
73101;BME280;61288;53.446;-2.266;2022-09-17T10:26:32;102134.41;;;14.70;48.21
73101;BME280;61288;53.446;-2.266;2022-09-17T10:29:04;102135.50;;;14.63;45.93
73101;BME280;61288;53.446;-2.266;2022-09-17T10:32:05;102130.03;;;14.46;45.78
73101;BME280;61288;53.446;-2.266;2022-09-17T10:34:49;102125.19;;;14.35;46.41
73101;BME280;61288;53.446;-2.266;2022-09-17T10:37:40;102130.94;;;14.18;47.79
73101;BME280;61288;53.446;-2.266;2022-09-17T10:42:45;102133.63;;;14.41;47.74
73101;BME280;61288;53.446;-2.266;2022-09-17T10:45:28;102132.56;;;14.47;46.94
73101;BME280;61288;53.446;-2.266;2022-09-17T10:47:56;102118.16;;;14.62;47.79
73101;BME280;61288;53.446;-2.266;2022-09-17T10:50:33;102128.69;;;14.59;46.30
73101;BME280;61288;53.446;-2.266;2022-09-17T10:53:05;102132.75;;;14.68;44.84
73101;BME280;61288;53.446;-2.266;2022-09-17T10:55:56;102120.31;;;14.76;44.86
73101;BME280;61288;53.446;-2.266;2022-09-17T11:06:27;102118.94;;;15.61;43.46
73101;BME280;61288;53.446;-2.266;2022-09-17T11:09:43;102125.72;;;15.65;43.81
73101;BME280;61288;53.446;-2.266;2022-09-17T11:15:23;102119.09;;;15.56;46.90
73101;BME280;61288;53.446;-2.266;2022-09-17T11:37:05;102115.81;;;15.51;43.29
73101;BME280;61288;53.446;-2.266;2022-09-17T11:40:02;102113.47;;;15.67;45.22
73101;BME280;61288;53.446;-2.266;2022-09-17T11:42:46;102106.69;;;15.62;44.42
73101;BME280;61288;53.446;-2.266;2022-09-17T11:45:16;102101.19;;;15.47;44.85
73101;BME280;61288;53.446;-2.266;2022-09-17T11:48:15;102108.69;;;15.55;46.92
73101;BME280;61288;53.446;-2.266;2022-09-17T11:53:17;102107.59;;;15.38;46.70
73101;BME280;61288;53.446;-2.266;2022-09-17T11:55:49;102103.59;;;15.52;46.41
73101;BME280;61288;53.446;-2.266;2022-09-17T12:00:58;102095.88;;;15.71;47.21
73101;BME280;61288;53.446;-2.266;2022-09-17T12:09:36;102107.38;;;15.44;44.75
73101;BME280;61288;53.446;-2.266;2022-09-17T12:12:14;102110.75;;;15.47;44.89
73101;BME280;61288;53.446;-2.266;2022-09-17T12:14:53;102097.53;;;15.51;45.20
73101;BME280;61288;53.446;-2.266;2022-09-17T12:17:37;102099.03;;;15.57;47.99
73101;BME280;61288;53.446;-2.266;2022-09-17T12:20:16;102104.06;;;15.84;46.99
73101;BME280;61288;53.446;-2.266;2022-09-17T12:22:49;102096.88;;;15.91;47.16
73101;BME280;61288;53.446;-2.266;2022-09-17T12:25:18;102095.53;;;15.80;45.93
73101;BME280;61288;53.446;-2.266;2022-09-17T12:28:12;102094.31;;;15.67;45.02
73101;BME280;61288;53.446;-2.266;2022-09-17T12:30:51;102090.38;;;15.56;44.15
73101;BME280;61288;53.446;-2.266;2022-09-17T12:33:45;102085.06;;;15.80;45.02
73101;BME280;61288;53.446;-2.266;2022-09-17T12:44:27;102067.75;;;16.41;43.77
73101;BME280;61288;53.446;-2.266;2022-09-17T12:55:39;102061.13;;;17.12;41.96
73101;BME280;61288;53.446;-2.266;2022-09-17T12:59:17;102066.59;;;17.27;44.10
73101;BME280;61288;53.446;-2.266;2022-09-17T13:01:29;102075.72;;;17.55;46.20
73101;BME280;61288;53.446;-2.266;2022-09-17T13:04:25;102073.47;;;17.66;43.91
73101;BME280;61288;53.446;-2.266;2022-09-17T13:10:02;102066.00;;;17.94;41.90
73101;BME280;61288;53.446;-2.266;2022-09-17T13:20:56;102059.34;;;18.39;41.13
73101;BME280;61288;53.446;-2.266;2022-09-17T13:23:46;102063.91;;;18.36;41.90
73101;BME280;61288;53.446;-2.266;2022-09-17T13:26:16;102070.88;;;18.19;41.87
73101;BME280;61288;53.446;-2.266;2022-09-17T13:28:48;102067.56;;;18.15;42.95
73101;BME280;61288;53.446;-2.266;2022-09-17T13:31:45;102069.09;;;17.84;42.83
73101;BME280;61288;53.446;-2.266;2022-09-17T13:36:54;102062.34;;;17.61;41.59
73101;BME280;61288;53.446;-2.266;2022-09-17T13:42:07;102069.00;;;17.86;43.16
73101;BME280;61288;53.446;-2.266;2022-09-17T13:44:40;102060.13;;;17.88;41.54
73101;BME280;61288;53.446;-2.266;2022-09-17T13:47:51;102057.69;;;18.03;41.74
73101;BME280;61288;53.446;-2.266;2022-09-17T13:52:51;102060.84;;;18.61;42.46
73101;BME280;61288;53.446;-2.266;2022-09-17T13:55:38;102058.00;;;18.66;40.44
73101;BME280;61288;53.446;-2.266;2022-09-17T13:58:09;102049.69;;;18.57;42.97
73101;BME280;61288;53.446;-2.266;2022-09-17T14:13:50;102045.53;;;16.90;47.56
73101;BME280;61288;53.446;-2.266;2022-09-17T14:16:31;102039.59;;;16.86;47.29
73101;BME280;61288;53.446;-2.266;2022-09-17T14:19:31;102034.00;;;16.94;47.47
73101;BME280;61288;53.446;-2.266;2022-09-17T14:24:44;102036.28;;;16.83;44.66
73101;BME280;61288;53.446;-2.266;2022-09-17T14:40:34;102030.38;;;16.19;49.04
73101;BME280;61288;53.446;-2.266;2022-09-17T14:43:01;102036.25;;;16.24;48.81
73101;BME280;61288;53.446;-2.266;2022-09-17T14:45:40;102038.66;;;16.28;50.24
73101;BME280;61288;53.446;-2.266;2022-09-17T14:50:49;102043.66;;;16.54;46.30
73101;BME280;61288;53.446;-2.266;2022-09-17T14:53:18;102037.34;;;16.18;46.15
73101;BME280;61288;53.446;-2.266;2022-09-17T14:55:48;102040.63;;;16.02;46.62
73101;BME280;61288;53.446;-2.266;2022-09-17T14:58:29;102045.25;;;15.96;48.78
73101;BME280;61288;53.446;-2.266;2022-09-17T15:01:00;102037.13;;;15.81;47.53
73101;BME280;61288;53.446;-2.266;2022-09-17T15:03:26;102039.44;;;15.67;48.24
73101;BME280;61288;53.446;-2.266;2022-09-17T15:05:51;102032.03;;;15.34;48.12
73101;BME280;61288;53.446;-2.266;2022-09-17T15:08:20;102031.63;;;15.22;48.42
73101;BME280;61288;53.446;-2.266;2022-09-17T15:13:18;102029.97;;;15.20;49.88
73101;BME280;61288;53.446;-2.266;2022-09-17T15:16:00;102024.31;;;15.08;50.08
73101;BME280;61288;53.446;-2.266;2022-09-17T15:18:41;102032.41;;;15.24;50.29
73101;BME280;61288;53.446;-2.266;2022-09-17T15:21:36;102031.56;;;15.46;49.83
73101;BME280;61288;53.446;-2.266;2022-09-17T15:26:34;102041.16;;;16.11;48.90
73101;BME280;61288;53.446;-2.266;2022-09-17T15:29:02;102041.94;;;16.34;49.42
73101;BME280;61288;53.446;-2.266;2022-09-17T15:31:29;102035.41;;;16.02;48.13
73101;BME280;61288;53.446;-2.266;2022-09-17T15:33:58;102039.78;;;15.80;48.92
73101;BME280;61288;53.446;-2.266;2022-09-17T15:36:26;102033.50;;;15.84;49.65
73101;BME280;61288;53.446;-2.266;2022-09-17T15:38:52;102029.84;;;16.10;49.28
73101;BME280;61288;53.446;-2.266;2022-09-17T15:41:34;102030.28;;;16.20;47.09
73101;BME280;61288;53.446;-2.266;2022-09-17T15:46:41;102024.72;;;16.28;47.07
73101;BME280;61288;53.446;-2.266;2022-09-17T15:49:35;102029.16;;;16.46;46.34
73101;BME280;61288;53.446;-2.266;2022-09-17T15:52:29;102024.56;;;16.52;47.32
73101;BME280;61288;53.446;-2.266;2022-09-17T15:54:59;102020.25;;;16.51;45.95
73101;BME280;61288;53.446;-2.266;2022-09-17T15:57:27;102023.63;;;16.13;45.21
73101;BME280;61288;53.446;-2.266;2022-09-17T16:00:03;102023.69;;;15.91;46.21
73101;BME280;61288;53.446;-2.266;2022-09-17T16:02:30;102022.91;;;15.88;45.72
73101;BME280;61288;53.446;-2.266;2022-09-17T16:07:42;102020.09;;;15.71;46.04
73101;BME280;61288;53.446;-2.266;2022-09-17T16:10:09;102015.56;;;15.76;46.49
73101;BME280;61288;53.446;-2.266;2022-09-17T16:12:34;102017.28;;;15.98;47.24
73101;BME280;61288;53.446;-2.266;2022-09-17T16:15:01;102009.03;;;16.07;47.65
73101;BME280;61288;53.446;-2.266;2022-09-17T16:17:40;102015.56;;;15.76;45.94
73101;BME280;61288;53.446;-2.266;2022-09-17T16:20:19;102009.69;;;15.49;46.68
73101;BME280;61288;53.446;-2.266;2022-09-17T16:22:48;102007.28;;;15.44;46.46
73101;BME280;61288;53.446;-2.266;2022-09-17T16:25:15;102009.41;;;15.34;48.13